Time;durP1;ratioP1;P1;durP2;ratioP2;P2;SDS_P1;SDS_P2;PMS_P1;PMS_P2;Temp;Humidity;BMP_temperature;BMP_pressure;BME280_temperature;BME280_humidity;BME280_pressure;Samples;Min_cycle;Max_cycle;Signal;HPM_P1;HPM_P2
2022/01/28 00:01:19;;;;;;;6.35;1.80;;;;;;;18.58;44.85;102915.31;5015830;28;20060;-70
2022/01/28 00:03:44;;;;;;;7.88;1.88;;;;;;;18.56;44.90;102922.44;5016032;28;20440;-71
2022/01/28 00:06:09;;;;;;;6.75;1.58;;;;;;;18.53;44.78;102929.66;5014934;28;20038;-71
2022/01/28 00:08:35;;;;;;;7.28;1.73;;;;;;;18.51;44.95;102936.81;5016315;28;20030;-71
2022/01/28 00:11:00;;;;;;;5.90;1.63;;;;;;;18.51;44.96;102942.09;5016570;28;20749;-72
2022/01/28 00:13:32;;;;;;;6.07;1.63;;;;;;;18.47;45.10;102942.25;5015812;28;20049;-71
2022/01/28 00:39:37;;;;;;;6.22;1.85;;;;;;;18.28;45.12;102973.13;5014999;28;20050;-71
2022/01/28 00:42:06;;;;;;;7.32;1.50;;;;;;;18.26;45.02;102961.78;5015498;28;20022;-72
2022/01/28 00:44:34;;;;;;;6.15;1.55;;;;;;;18.24;44.89;102959.22;5015195;28;20065;-72
2022/01/28 00:47:00;;;;;;;5.60;1.55;;;;;;;18.21;45.09;102955.88;5014833;28;20026;-72
2022/01/28 00:49:25;;;;;;;7.03;1.75;;;;;;;18.20;44.86;102957.66;5014876;28;20072;-71
2022/01/28 00:51:53;;;;;;;4.53;1.33;;;;;;;18.19;45.08;102949.81;5015279;28;20080;-71
2022/01/28 00:54:19;;;;;;;8.32;1.63;;;;;;;18.15;44.95;102956.16;5014291;28;20030;-72
2022/01/28 00:56:47;;;;;;;8.15;1.70;;;;;;;18.14;44.87;102957.97;5015023;28;20389;-72
2022/01/28 00:59:16;;;;;;;5.88;1.40;;;;;;;18.11;44.86;102953.66;5013758;28;20036;-71
2022/01/28 01:01:41;;;;;;;5.85;1.52;;;;;;;18.10;45.15;102964.28;5014069;28;20042;-72
2022/01/28 01:04:07;;;;;;;5.10;1.27;;;;;;;18.08;44.91;102958.25;5014566;28;20041;-71
2022/01/28 01:06:32;;;;;;;6.55;1.67;;;;;;;18.07;45.00;102960.03;5014961;28;20029;-72
2022/01/28 01:08:58;;;;;;;4.85;1.40;;;;;;;18.05;44.83;102961.88;5014253;28;20026;-72
2022/01/28 01:11:25;;;;;;;4.95;1.48;;;;;;;18.03;45.03;102958.47;5014544;28;20065;-72
2022/01/28 01:13:51;;;;;;;6.18;1.55;;;;;;;18.03;44.97;102966.38;5014564;28;20037;-72
2022/01/28 01:16:25;;;;;;;6.57;1.70;;;;;;;18.00;44.82;102974.44;5013405;28;20386;-72
2022/01/28 01:19:01;;;;;;;5.70;1.70;;;;;;;17.99;44.92;102987.69;5014520;28;20382;-72
2022/01/28 01:21:31;;;;;;;6.30;1.67;;;;;;;17.97;44.94;102979.00;5014276;28;20040;-71
2022/01/28 01:23:58;;;;;;;6.63;1.48;;;;;;;17.96;44.88;102975.53;5013765;28;20030;-72
2022/01/28 01:26:31;;;;;;;6.55;1.58;;;;;;;17.94;45.09;102972.09;5013989;28;20593;-72
2022/01/28 01:28:57;;;;;;;6.68;1.52;;;;;;;17.93;45.00;102968.59;5013580;28;20480;-71
2022/01/28 01:31:22;;;;;;;5.57;1.83;;;;;;;17.91;45.18;102978.38;5013778;28;20117;-71
2022/01/28 01:36:19;;;;;;;6.82;1.42;;;;;;;17.89;44.79;102982.00;5013267;28;20112;-71
2022/01/28 01:38:44;;;;;;;6.75;1.92;;;;;;;17.86;44.90;102985.59;5014258;28;20054;-71
2022/01/28 01:41:16;;;;;;;4.13;1.52;;;;;;;17.86;44.71;102990.03;5013635;28;20520;-72
2022/01/28 01:43:58;;;;;;;5.90;1.30;;;;;;;17.84;44.53;102989.25;5013330;28;20033;-72
2022/01/28 01:46:36;;;;;;;6.88;1.70;;;;;;;17.83;44.79;103003.34;5013900;28;20061;-71
2022/01/28 01:52:03;;;;;;;6.05;1.38;;;;;;;17.80;45.16;103001.72;5013579;28;20517;-71
2022/01/28 01:54:36;;;;;;;7.50;1.50;;;;;;;17.80;44.67;103008.75;5013738;28;20038;-71
2022/01/28 01:57:03;;;;;;;7.30;1.52;;;;;;;17.79;45.18;103012.34;5013273;28;20112;-71
2022/01/28 01:59:28;;;;;;;5.25;1.35;;;;;;;17.82;45.26;103022.75;5013469;28;20034;-71
2022/01/28 02:01:53;;;;;;;6.70;1.40;;;;;;;17.84;44.82;103032.28;5013778;28;20060;-71
2022/01/28 02:04:19;;;;;;;3.87;1.17;;;;;;;17.85;45.09;103033.13;5012618;28;20068;-71
2022/01/28 02:06:44;;;;;;;5.03;1.38;;;;;;;17.88;45.01;103033.91;5013820;28;20766;-71
2022/01/28 02:09:10;;;;;;;7.18;1.63;;;;;;;17.90;44.88;103032.06;5013188;28;20053;-70
2022/01/28 02:11:35;;;;;;;5.72;1.77;;;;;;;17.93;44.77;103041.63;5013063;28;20033;-72
2022/01/28 02:14:02;;;;;;;5.82;1.48;;;;;;;17.95;45.25;103039.75;5013611;28;20036;-71
2022/01/28 02:16:27;;;;;;;6.10;1.35;;;;;;;17.95;44.66;103039.75;5013092;28;20030;-70
2022/01/28 02:18:55;;;;;;;5.95;1.55;;;;;;;17.97;44.87;103044.97;5012764;28;20453;-71
2022/01/28 02:21:24;;;;;;;6.45;1.48;;;;;;;17.99;44.59;103049.25;5012832;28;20065;-71
2022/01/28 02:23:55;;;;;;;5.32;1.13;;;;;;;18.00;44.80;103053.59;5013619;28;20034;-72
2022/01/28 02:26:20;;;;;;;6.60;1.35;;;;;;;17.99;44.60;103046.63;5012443;28;20029;-72
2022/01/28 02:28:50;;;;;;;7.20;1.90;;;;;;;18.00;44.86;103052.75;5013299;28;20042;-73
2022/01/28 02:31:22;;;;;;;6.65;1.40;;;;;;;17.99;44.67;103048.38;5013090;28;20462;-71
2022/01/28 02:33:49;;;;;;;6.97;1.48;;;;;;;17.99;44.86;103054.53;5012447;28;20545;-71
2022/01/28 02:36:15;;;;;;;6.78;1.85;;;;;;;17.98;44.69;103060.72;5013007;28;20038;-71
2022/01/28 02:38:40;;;;;;;7.30;1.55;;;;;;;17.99;44.57;103058.94;5013256;28;20026;-72
2022/01/28 02:41:06;;;;;;;7.32;1.65;;;;;;;17.99;44.51;103058.94;5012259;28;20049;-71
2022/01/28 02:43:43;;;;;;;5.78;1.40;;;;;;;17.99;44.22;103056.28;5012856;28;20421;-71
2022/01/28 02:46:18;;;;;;;6.20;1.50;;;;;;;17.98;44.53;103055.44;5011983;28;20025;-70
2022/01/28 02:49:01;;;;;;;5.15;1.40;;;;;;;17.98;44.28;103055.44;5013159;28;20401;-71
2022/01/28 02:51:28;;;;;;;5.07;1.40;;;;;;;17.97;44.45;103060.78;5012818;28;20502;-71
2022/01/28 02:53:57;;;;;;;5.97;1.27;;;;;;;17.97;44.39;103066.91;5012450;28;20057;-71
2022/01/28 02:57:08;;;;;;;7.78;1.50;;;;;;;17.98;44.32;103079.19;5012440;28;20533;-71
2022/01/28 02:59:08;;;;;;;6.07;1.30;;;;;;;17.98;44.12;103081.00;5008728;28;20037;-72
2022/01/28 03:01:34;;;;;;;5.43;1.80;;;;;;;17.99;44.48;103077.41;5012052;28;20054;-72
2022/01/28 03:04:02;;;;;;;6.40;1.75;;;;;;;18.00;44.20;103081.75;5012921;28;20328;-72
2022/01/28 03:06:28;;;;;;;7.50;1.45;;;;;;;18.00;44.02;103081.75;5012409;28;20382;-72
2022/01/28 03:09:07;;;;;;;8.20;1.67;;;;;;;18.00;44.16;103082.63;5011865;28;20033;-72
2022/01/28 03:11:43;;;;;;;7.25;1.80;;;;;;;18.02;44.04;103091.31;5012692;28;20030;-72
2022/01/28 03:17:11;;;;;;;4.47;1.35;;;;;;;18.03;43.90;103097.47;5012875;28;20069;-72
2022/01/28 03:19:50;;;;;;;4.93;1.52;;;;;;;18.03;44.18;103097.47;5012545;28;20114;-72
2022/01/28 03:22:16;;;;;;;5.50;1.35;;;;;;;18.02;43.85;103096.59;5013890;28;20037;-72
2022/01/28 03:24:50;;;;;;;4.50;1.23;;;;;;;17.99;43.76;103090.59;5016600;28;20037;-71
2022/01/28 03:27:48;;;;;;;5.82;1.30;;;;;;;18.00;44.28;103098.44;5016572;28;20026;-71
2022/01/28 03:30:10;;;;;;;5.97;1.23;;;;;;;18.02;44.07;103108.94;5015959;28;20405;-71
2022/01/28 03:32:36;;;;;;;7.53;1.35;;;;;;;18.00;44.20;103098.44;5016849;28;20038;-72
2022/01/28 03:35:03;;;;;;;5.60;1.80;;;;;;;17.99;44.28;103099.38;5016531;28;20365;-72
2022/01/28 03:37:28;;;;;;;4.60;1.10;;;;;;;17.99;44.18;103102.03;5015391;28;20470;-71
2022/01/28 03:40:00;;;;;;;5.70;1.20;;;;;;;17.99;44.25;103098.50;5016162;28;20038;-71
2022/01/28 03:42:26;;;;;;;4.82;1.20;;;;;;;17.98;44.18;103096.81;5015369;28;20068;-71
2022/01/28 03:44:54;;;;;;;6.80;1.40;;;;;;;17.97;44.33;103097.72;5016485;28;20084;-72
2022/01/28 03:47:19;;;;;;;4.63;1.30;;;;;;;17.95;44.11;103098.66;5016177;28;20282;-71
2022/01/28 03:49:45;;;;;;;5.63;1.33;;;;;;;17.96;44.32;103094.25;5015472;28;20382;-71
2022/01/28 03:52:10;;;;;;;7.35;1.70;;;;;;;17.97;44.25;103105.66;5016135;28;20050;-70
2022/01/28 03:54:35;;;;;;;4.83;1.43;;;;;;;17.97;44.03;103097.72;5016064;28;20109;-71
2022/01/28 03:57:04;;;;;;;7.05;1.80;;;;;;;17.98;44.37;103099.47;5015368;28;20283;-72
2022/01/28 03:59:29;;;;;;;5.75;1.30;;;;;;;17.98;44.28;103102.94;5015526;28;20025;-71
2022/01/28 04:01:55;;;;;;;6.53;1.40;;;;;;;18.00;44.14;103116.06;5016086;28;20058;-72
2022/01/28 04:12:31;;;;;;;6.22;1.77;;;;;;;17.99;43.80;103122.25;5015068;28;20425;-71
2022/01/28 04:17:24;;;;;;;5.47;1.38;;;;;;;17.98;44.15;103116.13;5015470;28;20417;-73
2022/01/28 04:19:51;;;;;;;3.80;1.10;;;;;;;17.98;43.92;103124.03;5015072;28;20033;-72
2022/01/28 04:22:17;;;;;;;5.90;1.13;;;;;;;17.97;43.79;103132.88;5015455;28;20641;-72
2022/01/28 04:24:42;;;;;;;4.50;1.08;;;;;;;17.97;43.55;103132.03;5015083;28;20017;-72
2022/01/28 04:27:08;;;;;;;5.32;1.10;;;;;;;17.97;44.18;103124.13;5015529;28;20037;-73
2022/01/28 04:29:33;;;;;;;5.75;1.45;;;;;;;17.96;44.28;103112.72;5015606;28;20420;-72
2022/01/28 04:31:59;;;;;;;7.03;1.35;;;;;;;17.99;44.53;103116.97;5014910;28;20041;-72
2022/01/28 04:34:24;;;;;;;5.40;1.17;;;;;;;17.97;44.43;103130.25;5015137;28;20355;-71
2022/01/28 04:39:26;;;;;;;5.32;1.23;;;;;;;17.99;44.07;103143.38;5014303;28;20042;-72
2022/01/28 04:44:24;;;;;;;7.30;1.30;;;;;;;18.01;44.29;103142.38;5014877;28;20050;-72
2022/01/28 04:47:06;;;;;;;5.75;1.60;;;;;;;18.02;44.07;103153.78;5014594;28;20064;-71
2022/01/28 04:49:49;;;;;;;7.72;1.75;;;;;;;18.01;43.89;103146.78;5014887;28;20433;-72
2022/01/28 05:00:27;;;;;;;4.07;1.13;;;;;;;18.00;44.02;103145.09;5014206;28;20105;-71
2022/01/28 05:03:03;;;;;;;7.22;1.30;;;;;;;17.98;44.32;103142.50;5014837;28;20382;-72
2022/01/28 05:08:13;;;;;;;4.85;1.10;;;;;;;18.02;44.58;103159.06;5014092;28;20053;-72
2022/01/28 05:13:42;;;;;;;7.45;1.65;;;;;;;18.03;44.41;103168.69;5014470;28;20030;-71
2022/01/28 05:16:40;;;;;;;5.13;1.25;;;;;;;18.03;44.40;103169.53;5013891;28;20041;-71
2022/01/28 05:27:18;;;;;;;5.47;1.30;;;;;;;18.01;44.06;103181.97;5014249;28;20076;-71
2022/01/28 05:29:43;;;;;;;5.55;1.02;;;;;;;18.02;43.74;103186.28;5013505;28;20026;-71
2022/01/28 05:32:10;;;;;;;4.75;1.20;;;;;;;18.00;43.92;103187.31;5014122;28;20030;-71
2022/01/28 05:34:36;;;;;;;4.82;1.33;;;;;;;18.00;44.20;103182.03;5014295;28;20056;-71
2022/01/28 05:37:01;;;;;;;5.93;1.17;;;;;;;18.00;44.42;103179.38;5013417;28;20067;-71
2022/01/28 05:39:27;;;;;;;7.20;1.20;;;;;;;18.02;44.38;103191.56;5013567;28;20069;-71
2022/01/28 05:41:52;;;;;;;7.03;1.33;;;;;;;18.02;44.07;103193.34;5014144;28;20022;-71
2022/01/28 05:44:18;;;;;;;5.95;1.40;;;;;;;18.03;44.08;103201.22;5012772;28;20271;-70
2022/01/28 05:46:45;;;;;;;5.63;1.45;;;;;;;18.04;44.27;103204.69;5014234;28;20038;-71
2022/01/28 05:49:14;;;;;;;6.38;1.40;;;;;;;18.04;44.25;103204.69;5013436;28;20026;-71
2022/01/28 05:51:40;;;;;;;6.45;1.40;;;;;;;18.05;44.44;103209.91;5013846;28;20026;-72
2022/01/28 05:54:09;;;;;;;7.20;1.50;;;;;;;18.03;43.90;103200.38;5014158;28;20038;-72
2022/01/28 05:56:35;;;;;;;6.70;1.60;;;;;;;18.03;44.13;103203.00;5013109;28;20210;-71
2022/01/28 05:59:00;;;;;;;7.35;1.60;;;;;;;18.00;43.79;103201.34;5013759;28;20658;-72
2022/01/28 06:01:25;;;;;;;6.03;1.95;;;;;;;18.04;43.77;103212.59;5013527;28;20425;-72
2022/01/28 06:03:51;;;;;;;7.53;1.23;;;;;;;18.00;43.96;103201.34;5012991;28;20033;-73
2022/01/28 06:06:22;;;;;;;7.20;1.17;;;;;;;18.06;44.72;103222.19;5013425;28;20400;-71
2022/01/28 06:08:52;;;;;;;6.22;1.30;;;;;;;18.08;45.41;103241.44;5013960;28;20034;-71
2022/01/28 06:11:18;;;;;;;7.57;1.98;;;;;;;18.10;45.54;103244.91;5012186;28;20040;-71
2022/01/28 06:13:44;;;;;;;6.13;1.67;;;;;;;18.11;45.34;103243.94;5013597;28;20022;-72
2022/01/28 06:16:10;;;;;;;7.13;1.30;;;;;;;18.15;45.59;103243.81;5013177;28;20092;-72
2022/01/28 06:18:35;;;;;;;6.82;1.45;;;;;;;18.18;45.87;103244.53;5012601;28;20037;-72
2022/01/28 06:21:01;;;;;;;5.22;1.15;;;;;;;18.20;46.67;103244.47;5013824;28;20083;-73
2022/01/28 06:23:26;;;;;;;5.07;1.77;;;;;;;18.22;46.72;103245.28;5013267;28;20153;-71
2022/01/28 06:25:51;;;;;;;7.13;1.48;;;;;;;18.23;46.47;103250.50;5012728;28;20025;-70
2022/01/28 06:28:17;;;;;;;5.17;1.30;;;;;;;18.26;46.54;103250.34;5013307;28;20049;-71
2022/01/28 06:30:42;;;;;;;6.23;1.40;;;;;;;18.28;46.16;103258.22;5013228;28;20778;-71
2022/01/28 06:33:12;;;;;;;5.53;1.15;;;;;;;18.29;46.42;103246.72;5012331;28;20659;-70
2022/01/28 06:35:38;;;;;;;5.90;1.30;;;;;;;18.31;45.85;103263.34;5013481;28;20486;-71
2022/01/28 06:38:04;;;;;;;8.57;1.88;;;;;;;18.33;45.75;103271.22;5013263;28;20117;-71
2022/01/28 06:40:29;;;;;;;6.75;1.27;;;;;;;18.35;45.62;103274.63;5012043;28;20625;-70
2022/01/28 06:42:54;;;;;;;5.68;1.17;;;;;;;18.35;45.35;103277.28;5013181;28;20026;-71
2022/01/28 06:45:19;;;;;;;5.07;1.13;;;;;;;18.37;45.71;103284.19;5011874;28;20075;-70
2022/01/28 06:47:45;;;;;;;8.73;1.57;;;;;;;18.38;45.47;103277.13;5013037;28;20071;-70
2022/01/28 06:50:10;;;;;;;5.70;1.90;;;;;;;18.38;45.31;103280.63;5012456;28;20288;-70
2022/01/28 06:52:37;;;;;;;6.07;1.00;;;;;;;18.39;45.08;103287.63;5011860;28;20108;-70
2022/01/28 06:55:03;;;;;;;6.22;1.30;;;;;;;18.39;45.17;103292.03;5012824;28;20101;-71
2022/01/28 06:57:29;;;;;;;6.10;1.45;;;;;;;18.40;45.03;103302.53;5011789;28;20028;-70
2022/01/28 06:59:55;;;;;;;5.70;1.33;;;;;;;18.40;44.90;103301.69;5012057;28;20026;-70
2022/01/28 07:02:21;;;;;;;5.70;1.40;;;;;;;18.41;44.96;103313.97;5012544;28;20045;-70
2022/01/28 07:04:46;;;;;;;4.75;1.30;;;;;;;18.42;44.81;103323.59;5012748;28;20157;-70
2022/01/28 07:07:14;;;;;;;5.23;1.30;;;;;;;18.41;45.35;103314.81;5011916;28;20034;-70
2022/01/28 07:09:39;;;;;;;4.38;1.35;;;;;;;18.42;45.67;103324.47;5012744;28;20325;-69
2022/01/28 07:12:05;;;;;;;5.97;1.40;;;;;;;18.44;45.89;103337.59;5012919;28;20470;-69
2022/01/28 07:14:31;;;;;;;5.35;1.10;;;;;;;18.44;45.66;103341.09;5011693;28;20032;-70
2022/01/28 07:16:56;;;;;;;7.47;1.35;;;;;;;18.46;45.70;103344.50;5012939;28;20046;-70
2022/01/28 07:19:21;;;;;;;7.28;1.38;;;;;;;18.44;45.95;103338.44;5012496;28;20091;-70
2022/01/28 07:21:47;;;;;;;7.03;1.47;;;;;;;18.47;45.96;103340.13;5012150;28;20018;-70
2022/01/28 07:24:12;;;;;;;5.37;1.00;;;;;;;18.47;45.69;103338.31;5012722;28;20383;-70
2022/01/28 07:26:37;;;;;;;5.50;1.42;;;;;;;18.48;45.26;103347.09;5012527;28;20275;-71
2022/01/28 07:29:03;;;;;;;4.63;1.13;;;;;;;18.46;43.79;103339.22;5011756;28;20478;-69
2022/01/28 07:31:28;;;;;;;4.90;1.45;;;;;;;18.44;44.11;103337.59;5012120;28;20034;-69
2022/01/28 07:33:53;;;;;;;4.38;1.27;;;;;;;18.45;44.84;103341.94;5012410;28;20033;-69
2022/01/28 07:36:18;;;;;;;6.53;1.50;;;;;;;18.47;45.33;103351.53;5011406;28;20022;-68
2022/01/28 07:38:46;;;;;;;4.78;1.23;;;;;;;18.50;45.04;103361.09;5012759;28;20287;-68
2022/01/28 07:41:11;;;;;;;7.95;1.45;;;;;;;18.50;45.18;103363.75;5011957;28;20100;-68
2022/01/28 07:43:39;;;;;;;6.43;1.58;;;;;;;18.54;45.20;103372.38;5011664;28;20026;-67
2022/01/28 07:46:05;;;;;;;6.18;1.35;;;;;;;18.57;45.24;103366.97;5012455;28;20026;-68
2022/01/28 07:48:31;;;;;;;8.57;2.42;;;;;;;18.60;45.09;103365.03;5011084;28;20156;-68
2022/01/28 07:50:56;;;;;;;6.05;1.30;;;;;;;18.62;45.21;103364.97;5012514;28;20049;-69
2022/01/28 07:53:22;;;;;;;6.05;1.33;;;;;;;18.64;45.15;103371.94;5012136;28;20529;-72
2022/01/28 07:55:50;;;;;;;6.32;1.42;;;;;;;18.66;45.40;103369.22;5011630;28;20486;-71
2022/01/28 07:58:15;;;;;;;6.28;2.05;;;;;;;18.67;44.18;103363.00;5012142;28;20022;-68
2022/01/28 08:00:43;;;;;;;5.47;1.63;;;;;;;18.64;44.02;103369.28;5012305;28;20032;-68
2022/01/28 08:03:08;;;;;;;7.60;1.63;;;;;;;18.64;44.90;103374.56;5011074;28;20763;-68
2022/01/28 08:05:34;;;;;;;9.25;1.83;;;;;;;18.66;45.17;103374.50;5012269;28;20022;-68
2022/01/28 08:08:04;;;;;;;7.10;1.98;;;;;;;18.66;45.48;103378.00;5013765;28;20018;-69
2022/01/28 08:10:29;;;;;;;6.05;1.45;;;;;;;18.68;45.54;103386.69;5014760;28;20042;-68
2022/01/28 08:12:55;;;;;;;6.90;1.80;;;;;;;18.70;45.44;103386.63;5016056;28;20067;-68
2022/01/28 08:15:20;;;;;;;6.88;1.67;;;;;;;18.70;45.62;103384.00;5015244;28;20068;-68
2022/01/28 08:17:46;;;;;;;7.68;1.80;;;;;;;18.71;45.27;103395.41;5015229;28;20061;-68
2022/01/28 08:20:12;;;;;;;5.35;1.67;;;;;;;18.74;45.51;103409.34;5015546;28;20172;-68
2022/01/28 08:22:48;;;;;;;8.30;1.75;;;;;;;18.75;45.17;103408.41;5015641;28;20030;-68
2022/01/28 08:25:14;;;;;;;7.65;1.58;;;;;;;18.75;45.72;103407.56;5014890;28;20168;-68
2022/01/28 08:27:44;;;;;;;6.72;1.83;;;;;;;18.78;45.51;103418.84;5015210;28;20500;-69
2022/01/28 08:30:14;;;;;;;7.03;1.70;;;;;;;18.77;45.62;103419.78;5014910;28;20029;-69
2022/01/28 08:32:39;;;;;;;7.88;2.05;;;;;;;18.84;45.22;103420.41;5014413;28;20393;-70
2022/01/28 08:35:06;;;;;;;4.50;1.38;;;;;;;18.87;45.60;103416.75;5015324;28;20169;-69
2022/01/28 08:37:32;;;;;;;6.45;1.30;;;;;;;18.90;45.96;103420.16;5015091;28;20030;-69
2022/01/28 08:39:57;;;;;;;7.07;1.70;;;;;;;18.93;45.83;103429.69;5014533;28;20176;-69
2022/01/28 08:42:23;;;;;;;5.97;1.63;;;;;;;18.94;45.64;103432.28;5014783;28;20294;-69
2022/01/28 08:44:51;;;;;;;4.80;1.35;;;;;;;18.96;45.66;103426.94;5015952;28;20052;-72
2022/01/28 08:47:16;;;;;;;4.95;1.80;;;;;;;19.07;45.70;103437.88;5017354;28;20037;-74
2022/01/28 08:49:41;;;;;;;6.53;1.57;;;;;;;19.17;45.72;103425.97;5018883;28;20431;-73
2022/01/28 08:52:07;;;;;;;6.77;1.93;;;;;;;19.28;45.53;103432.56;5016943;28;20271;-70
2022/01/28 08:54:32;;;;;;;6.97;1.75;;;;;;;19.37;45.50;103435.63;5015236;28;20286;-70
2022/01/28 08:56:57;;;;;;;11.32;2.28;;;;;;;19.46;45.33;103429.06;5015279;28;20029;-70
2022/01/28 08:59:22;;;;;;;6.43;1.38;;;;;;;19.53;45.43;103429.66;5014189;28;20108;-73
2022/01/28 09:01:48;;;;;;;6.07;1.75;;;;;;;19.57;45.34;103431.22;5016480;28;20375;-70
2022/01/28 09:04:13;;;;;;;6.32;1.55;;;;;;;19.53;45.22;103434.94;5014700;28;20022;-70
2022/01/28 09:06:38;;;;;;;6.30;1.60;;;;;;;19.46;45.44;103437.00;5014277;28;20449;-70
2022/01/28 09:09:04;;;;;;;6.88;1.52;;;;;;;19.42;45.79;103439.88;5014986;28;20470;-70
2022/01/28 09:11:33;;;;;;;5.47;1.35;;;;;;;19.36;46.05;103433.09;5014255;28;20496;-70
2022/01/28 09:13:59;;;;;;;6.32;1.55;;;;;;;19.32;46.19;103432.34;5014206;28;20022;-70
2022/01/28 09:16:25;;;;;;;6.85;1.58;;;;;;;19.28;46.21;103436.06;5014424;28;20533;-70
2022/01/28 09:18:52;;;;;;;9.15;2.13;;;;;;;19.26;46.18;103432.63;5014121;28;20037;-70
2022/01/28 09:21:19;;;;;;;6.13;1.60;;;;;;;19.24;46.06;103431.00;5013620;28;20030;-71
2022/01/28 09:23:46;;;;;;;8.65;2.67;;;;;;;19.23;46.03;103435.41;5014425;28;20088;-70
2022/01/28 09:26:12;;;;;;;5.95;1.42;;;;;;;19.20;46.06;103443.47;5014261;28;20034;-70
2022/01/28 09:28:37;;;;;;;8.70;1.73;;;;;;;19.19;46.08;103444.41;5013889;28;20022;-71
2022/01/28 09:31:02;;;;;;;5.07;1.40;;;;;;;19.17;46.03;103448.94;5014482;28;20038;-71
2022/01/28 09:33:28;;;;;;;6.95;1.50;;;;;;;19.15;46.34;103449.00;5014181;28;20287;-69
2022/01/28 09:35:54;;;;;;;5.93;1.42;;;;;;;19.15;46.55;103454.28;5013785;28;20025;-71
2022/01/28 09:38:19;;;;;;;7.35;1.52;;;;;;;19.14;46.66;103447.25;5013934;28;20038;-71
2022/01/28 09:40:44;;;;;;;9.27;1.80;;;;;;;19.13;46.63;103449.97;5014174;28;20038;-71
2022/01/28 09:43:13;;;;;;;4.93;1.60;;;;;;;19.12;46.45;103457.06;5013075;28;20478;-71
2022/01/28 09:45:39;;;;;;;5.63;1.75;;;;;;;19.12;46.13;103448.25;5014129;28;20267;-71
2022/01/28 09:48:04;;;;;;;6.03;1.63;;;;;;;19.09;46.22;103445.75;5013457;28;20029;-71
2022/01/28 09:50:32;;;;;;;5.85;1.48;;;;;;;19.09;46.13;103457.19;5013590;28;20041;-71
2022/01/28 09:53:00;;;;;;;7.30;1.70;;;;;;;19.07;46.57;103445.81;5014100;28;20026;-71
2022/01/28 09:55:26;;;;;;;6.30;1.75;;;;;;;19.07;46.28;103466.09;5013386;28;20232;-75
2022/01/28 09:57:55;;;;;;;7.55;1.92;;;;;;;19.14;46.29;103465.78;5013894;28;20029;-73
2022/01/28 10:00:23;;;;;;;8.57;1.95;;;;;;;19.22;46.64;103473.38;5014169;28;20044;-75
2022/01/28 10:03:04;;;;;;;10.40;2.03;;;;;;;19.26;46.17;103472.28;5011948;28;20034;-72
2022/01/28 10:05:35;;;;;;;7.60;1.98;;;;;;;19.30;44.98;103471.22;5013628;28;20038;-77
2022/01/28 10:08:05;;;;;;;7.03;2.05;;;;;;;19.34;45.49;103461.38;5013882;28;20029;-73
2022/01/28 10:10:55;;;;;;;5.45;1.52;;;;;;;19.35;45.66;103463.09;5012426;28;20029;-72
2022/01/28 10:13:27;;;;;;;8.10;2.20;;;;;;;19.32;45.52;103469.38;5013227;28;20037;-71
2022/01/28 10:15:53;;;;;;;6.07;1.33;;;;;;;19.28;46.31;103461.63;5013712;28;20034;-71
2022/01/28 10:18:19;;;;;;;7.25;1.77;;;;;;;19.23;46.58;103455.72;5012928;28;20437;-71
2022/01/28 10:20:44;;;;;;;7.60;1.75;;;;;;;19.23;46.26;103461.00;5013519;28;20069;-70
2022/01/28 10:23:12;;;;;;;8.25;1.75;;;;;;;19.17;46.53;103464.78;5013330;28;20034;-70
2022/01/28 10:25:38;;;;;;;6.43;1.73;;;;;;;19.18;46.46;103462.06;5013340;28;20493;-70
2022/01/28 10:28:07;;;;;;;6.55;1.70;;;;;;;19.15;46.59;103466.63;5013259;28;20458;-71
2022/01/28 10:30:37;;;;;;;5.82;1.65;;;;;;;19.14;46.76;103476.34;5012513;28;20041;-71
2022/01/28 10:33:21;;;;;;;7.35;1.67;;;;;;;19.11;46.73;103473.84;5013162;28;20033;-72
2022/01/28 10:36:01;;;;;;;5.63;1.60;;;;;;;19.11;46.50;103468.53;5013408;28;20165;-71
2022/01/28 10:38:28;;;;;;;6.10;1.58;;;;;;;19.10;46.23;103477.38;5012314;28;20524;-71
2022/01/28 10:41:10;;;;;;;4.95;1.50;;;;;;;19.10;46.58;103476.53;5013106;28;20401;-71
2022/01/28 10:44:00;;;;;;;6.47;1.58;;;;;;;19.07;47.07;103477.53;5013254;28;20026;-71
2022/01/28 10:46:36;;;;;;;6.40;1.73;;;;;;;19.07;47.28;103477.53;5012294;28;20072;-70
2022/01/28 10:49:05;;;;;;;6.68;1.52;;;;;;;19.08;47.24;103473.13;5013121;28;20045;-71
2022/01/28 10:51:40;;;;;;;7.97;1.95;;;;;;;19.07;47.45;103464.31;5011704;28;20030;-71
2022/01/28 10:54:10;;;;;;;5.70;1.40;;;;;;;19.06;47.18;103467.91;5013206;28;20064;-70
2022/01/28 10:56:46;;;;;;;8.57;1.77;;;;;;;19.06;47.32;103472.31;5012894;28;20034;-70
2022/01/28 10:59:14;;;;;;;6.60;1.60;;;;;;;19.04;47.06;103464.44;5011954;28;20037;-66
2022/01/28 11:01:45;;;;;;;6.35;1.67;;;;;;;19.04;46.85;103456.50;5012779;28;20033;-70
2022/01/28 11:04:12;;;;;;;4.75;1.45;;;;;;;19.04;46.92;103456.50;5012654;28;20379;-69
2022/01/28 11:06:39;;;;;;;10.50;2.03;;;;;;;19.05;46.99;103452.09;5012299;28;20026;-68
2022/01/28 11:09:07;;;;;;;7.10;1.75;;;;;;;19.05;46.37;103446.81;5013044;28;20022;-70
2022/01/28 11:11:32;;;;;;;6.50;1.73;;;;;;;19.06;46.57;103454.69;5013211;28;20045;-70
2022/01/28 11:13:58;;;;;;;6.47;1.30;;;;;;;19.01;47.17;103444.31;5012302;28;20386;-71
2022/01/28 11:16:25;;;;;;;7.55;1.80;;;;;;;19.05;46.97;103441.53;5012479;28;20052;-70
2022/01/28 11:18:50;;;;;;;7.97;1.67;;;;;;;19.04;47.38;103438.00;5012987;28;20040;-70
2022/01/28 11:21:17;;;;;;;7.60;1.52;;;;;;;19.06;47.34;103430.03;5011942;28;20117;-70
2022/01/28 11:24:09;;;;;;;6.78;1.35;;;;;;;19.03;47.17;103423.94;5012651;28;20474;-69
2022/01/28 11:26:49;;;;;;;6.90;1.50;;;;;;;19.05;47.48;103431.81;5012248;28;20049;-69
2022/01/28 11:29:20;;;;;;;6.97;1.50;;;;;;;19.04;47.54;103419.50;5012667;28;20032;-70
2022/01/28 11:31:51;;;;;;;9.20;1.90;;;;;;;19.03;47.59;103418.66;5012929;28;20037;-70
2022/01/28 11:34:30;;;;;;;6.85;1.42;;;;;;;19.03;47.11;103423.09;5011783;28;20040;-71
2022/01/28 11:37:15;;;;;;;10.25;1.95;;;;;;;19.03;47.00;103420.47;5013560;28;20022;-70
2022/01/28 11:39:45;;;;;;;7.50;1.65;;;;;;;19.05;46.82;103412.47;5013818;28;20049;-71
2022/01/28 11:42:13;;;;;;;6.63;1.40;;;;;;;19.05;47.51;103410.66;5014041;28;20049;-70
2022/01/28 11:44:51;;;;;;;7.28;1.58;;;;;;;19.06;47.19;103412.41;5019298;28;20033;-70
2022/01/28 11:47:29;;;;;;;6.88;1.55;;;;;;;19.07;47.51;103407.97;5020045;28;20091;-69
2022/01/28 11:50:04;;;;;;;7.10;1.55;;;;;;;19.07;47.44;103407.97;5026082;28;20117;-68
2022/01/28 11:52:32;;;;;;;6.65;1.52;;;;;;;19.05;44.80;103407.19;5028817;28;20022;-71
2022/01/28 11:55:25;;;;;;;6.65;1.98;;;;;;;19.02;46.25;103408.16;5027057;28;20451;-71
2022/01/28 11:57:54;;;;;;;8.77;1.95;;;;;;;18.99;45.76;103403.88;5024861;28;20141;-68
2022/01/28 12:00:34;;;;;;;8.10;1.80;;;;;;;18.96;45.84;103405.78;5017852;28;20022;-71
2022/01/28 12:03:02;;;;;;;6.75;1.60;;;;;;;18.96;47.15;103404.03;5026462;28;20062;-71
2022/01/28 12:05:30;;;;;;;6.00;1.40;;;;;;;18.97;47.28;103407.50;5018535;28;20022;-71
2022/01/28 12:08:05;;;;;;;6.97;1.55;;;;;;;18.96;47.36;103411.06;5016443;28;20033;-72
2022/01/28 12:10:33;;;;;;;6.43;1.52;;;;;;;18.97;47.45;103403.06;5015050;28;20052;-72
2022/01/28 12:13:05;;;;;;;4.95;1.48;;;;;;;18.99;47.10;103409.19;5016107;28;20433;-73
2022/01/28 12:16:00;;;;;;;8.02;1.48;;;;;;;18.97;47.48;103411.00;5015793;28;20018;-73
2022/01/28 12:18:46;;;;;;;7.93;1.30;;;;;;;18.99;47.50;103403.88;5015729;28;20038;-73
2022/01/28 12:21:12;;;;;;;5.47;1.58;;;;;;;18.99;47.00;103401.25;5015618;28;20076;-72
2022/01/28 12:23:38;;;;;;;5.68;1.40;;;;;;;18.98;47.42;103394.22;5015594;28;20441;-72
2022/01/28 12:26:03;;;;;;;5.07;1.23;;;;;;;18.99;46.61;103377.47;5015998;28;20025;-71
2022/01/28 12:28:37;;;;;;;7.70;1.48;;;;;;;18.99;46.93;103366.91;5015626;28;20025;-72
2022/01/28 12:31:24;;;;;;;5.25;1.30;;;;;;;19.00;47.15;103373.03;5015208;28;20041;-71
2022/01/28 12:33:52;;;;;;;6.30;1.35;;;;;;;19.00;47.35;103365.09;5015568;28;20113;-71
2022/01/28 12:36:23;;;;;;;7.13;1.40;;;;;;;19.01;47.38;103367.66;5015459;28;20026;-72
2022/01/28 12:38:59;;;;;;;5.70;1.40;;;;;;;19.02;47.18;103363.22;5015108;28;20451;-72
2022/01/28 12:41:25;;;;;;;8.07;2.17;;;;;;;19.04;47.46;103358.72;5014882;28;20046;-72